Time;durP1;ratioP1;P1;durP2;ratioP2;P2;SDS_P1;SDS_P2;PMS_P1;PMS_P2;Temp;Humidity;BMP_temperature;BMP_pressure;BME280_temperature;BME280_humidity;BME280_pressure;Samples;Min_cycle;Max_cycle;Signal;HPM_P1;HPM_P2
2022/07/25 00:02:25;;;;;;;14.37;13.00;;;20.30;99.90;;;;;;4973117;28;20304;-71
2022/07/25 00:04:50;;;;;;;14.30;12.60;;;20.30;99.90;;;;;;4941221;28;20804;-72
2022/07/25 00:07:16;;;;;;;13.30;12.10;;;20.30;99.90;;;;;;4941235;28;20228;-73
2022/07/25 00:09:41;;;;;;;11.93;10.73;;;20.20;99.90;;;;;;4956874;28;20179;-73
2022/07/25 00:12:07;;;;;;;13.70;12.40;;;20.20;99.90;;;;;;4955665;28;20696;-72
2022/07/25 00:14:33;;;;;;;14.20;11.80;;;20.20;99.90;;;;;;4956687;28;20561;-72
2022/07/25 00:16:58;;;;;;;18.17;12.40;;;20.20;99.90;;;;;;4956809;28;20208;-72
2022/07/25 00:19:24;;;;;;;13.57;12.10;;;20.20;99.90;;;;;;4956795;28;20656;-72
2022/07/25 00:21:50;;;;;;;15.07;13.50;;;20.10;99.90;;;;;;4955920;28;20215;-73
2022/07/25 00:24:16;;;;;;;14.23;12.77;;;20.10;99.90;;;;;;4940983;28;20184;-72
2022/07/25 00:26:41;;;;;;;13.47;12.17;;;20.10;99.90;;;;;;4956385;28;20820;-72
2022/07/25 00:29:07;;;;;;;15.43;12.67;;;20.10;99.90;;;;;;4956754;28;20176;-72
2022/07/25 00:31:32;;;;;;;13.77;12.53;;;20.10;99.90;;;;;;4956717;28;20692;-74
2022/07/25 00:33:58;;;;;;;13.90;12.60;;;20.10;99.90;;;;;;4957314;28;20187;-72
2022/07/25 00:36:24;;;;;;;14.53;11.80;;;20.00;99.90;;;;;;4974614;28;20184;-70
2022/07/25 00:38:49;;;;;;;14.10;12.80;;;20.00;99.90;;;;;;4957365;28;20718;-73
2022/07/25 00:41:15;;;;;;;13.50;12.20;;;20.00;99.90;;;;;;4956866;28;20693;-71
2022/07/25 00:43:44;;;;;;;14.93;13.33;;;20.00;99.90;;;;;;4957234;28;20254;-73
2022/07/25 00:46:16;;;;;;;13.60;12.30;;;19.90;99.90;;;;;;4956529;28;20176;-72
2022/07/25 00:48:42;;;;;;;13.73;12.33;;;19.90;99.90;;;;;;4972583;28;20415;-73
2022/07/25 00:51:09;;;;;;;15.87;14.37;;;19.90;99.90;;;;;;4955316;28;20477;-73
2022/07/25 00:53:36;;;;;;;13.47;12.27;;;19.90;99.90;;;;;;4956019;28;20427;-71
2022/07/25 00:56:03;;;;;;;15.13;13.60;;;19.90;99.90;;;;;;4956612;28;20431;-73
2022/07/25 00:58:29;;;;;;;16.63;12.50;;;20.00;99.90;;;;;;4955491;28;20845;-71
2022/07/25 02:32:29;;;;;;;15.93;13.27;;;19.80;99.90;;;;;;5199969;23;20539;-76
2022/07/25 02:34:57;;;;;;;14.97;13.50;;;19.80;99.90;;;;;;4947985;29;20879;-74
2022/07/25 02:37:23;;;;;;;15.30;13.67;;;19.80;99.90;;;;;;4947540;29;20212;-76
2022/07/25 02:39:48;;;;;;;14.27;12.77;;;19.70;99.90;;;;;;4953876;29;20511;-76
2022/07/25 02:42:14;;;;;;;15.37;13.80;;;19.70;99.90;;;;;;4953107;28;20464;-74
2022/07/25 02:44:39;;;;;;;15.30;13.10;;;19.70;99.90;;;;;;4953476;29;20528;-76
2022/07/25 02:47:05;;;;;;;15.53;13.90;;;19.60;99.90;;;;;;4952607;28;20665;-75
2022/07/25 02:49:30;;;;;;;14.07;12.53;;;19.60;99.90;;;;;;4952479;29;20177;-75
2022/07/25 02:51:56;;;;;;;15.40;14.00;;;19.60;99.90;;;;;;4951820;28;20205;-75
2022/07/25 02:54:22;;;;;;;17.70;13.67;;;19.60;99.90;;;;;;4952340;29;20176;-75
2022/07/25 02:56:47;;;;;;;15.20;13.80;;;19.60;99.90;;;;;;4951820;29;20443;-75
2022/07/25 02:59:13;;;;;;;15.47;14.07;;;19.50;99.90;;;;;;4951377;29;20271;-75
2022/07/25 03:01:38;;;;;;;15.63;13.40;;;19.50;99.90;;;;;;4951021;28;20189;-75
2022/07/25 03:04:04;;;;;;;16.70;12.27;;;19.50;99.90;;;;;;4952307;29;20248;-75
2022/07/25 03:06:29;;;;;;;15.00;13.50;;;19.40;99.90;;;;;;4952550;29;20255;-75
2022/07/25 03:08:55;;;;;;;14.13;12.93;;;19.40;99.90;;;;;;4952310;29;20259;-74
2022/07/25 03:11:20;;;;;;;14.43;12.93;;;19.40;99.90;;;;;;4951117;28;20626;-76
2022/07/25 03:13:46;;;;;;;16.03;13.50;;;19.30;99.90;;;;;;4951912;28;20188;-76
2022/07/25 03:16:11;;;;;;;14.10;12.80;;;19.30;99.90;;;;;;4952188;28;20196;-75
2022/07/25 03:18:37;;;;;;;15.47;13.97;;;19.30;99.90;;;;;;4952300;29;20307;-76
2022/07/25 03:21:03;;;;;;;15.07;13.60;;;19.20;99.90;;;;;;4951423;28;20297;-76
2022/07/25 03:23:29;;;;;;;13.87;12.40;;;19.20;99.90;;;;;;4952139;28;20169;-75
2022/07/25 03:25:55;;;;;;;14.87;13.40;;;19.20;99.90;;;;;;4951663;28;20165;-75
2022/07/25 03:28:21;;;;;;;14.87;13.37;;;19.20;99.90;;;;;;4952170;29;20758;-75
2022/07/25 03:30:47;;;;;;;14.60;12.83;;;19.10;99.90;;;;;;4951208;28;20439;-75
2022/07/25 03:33:12;;;;;;;13.93;12.43;;;19.10;99.90;;;;;;4952308;29;20199;-75
2022/07/25 03:35:38;;;;;;;13.90;12.50;;;19.10;99.90;;;;;;4950298;29;20177;-75
2022/07/25 03:38:03;;;;;;;17.00;14.30;;;19.10;99.90;;;;;;4950195;29;20303;-75
2022/07/25 03:40:30;;;;;;;14.33;12.77;;;19.10;99.90;;;;;;4951589;29;20653;-72
2022/07/25 03:42:56;;;;;;;14.33;12.93;;;19.10;99.90;;;;;;4934613;29;20223;-73
2022/07/25 03:45:21;;;;;;;14.40;12.87;;;19.10;99.90;;;;;;4952340;29;20464;-76
2022/07/25 03:47:47;;;;;;;14.63;13.20;;;19.20;99.90;;;;;;4952207;29;20654;-76
2022/07/25 03:50:12;;;;;;;14.50;13.00;;;19.20;99.90;;;;;;4951342;29;20181;-76
2022/07/25 03:52:38;;;;;;;15.13;13.73;;;19.10;99.90;;;;;;4951113;28;20541;-76
2022/07/25 03:55:09;;;;;;;14.50;13.03;;;19.20;99.90;;;;;;4951860;29;20181;-75
2022/07/25 03:57:34;;;;;;;16.10;14.27;;;19.10;99.90;;;;;;4951655;28;20204;-74
2022/07/25 04:00:00;;;;;;;14.83;13.43;;;19.10;99.90;;;;;;4951428;28;20420;-74
2022/07/25 04:02:25;;;;;;;15.97;13.20;;;19.00;99.90;;;;;;4951035;28;20204;-73
2022/07/25 04:04:51;;;;;;;14.47;13.07;;;19.10;99.90;;;;;;4951719;29;20541;-75
2022/07/25 04:07:18;;;;;;;15.40;12.20;;;19.10;99.90;;;;;;4951800;28;20173;-74
2022/07/25 04:09:43;;;;;;;18.03;13.83;;;19.10;99.90;;;;;;4953428;28;20177;-74
2022/07/25 04:12:09;;;;;;;14.70;13.20;;;19.10;99.90;;;;;;4954293;28;20462;-74
2022/07/25 04:14:34;;;;;;;14.80;13.30;;;19.10;99.90;;;;;;4955092;28;20189;-71
2022/07/25 04:17:00;;;;;;;15.43;13.60;;;19.10;99.90;;;;;;4954517;29;20176;-74
2022/07/25 04:19:25;;;;;;;13.90;12.60;;;19.10;99.90;;;;;;4954970;29;20263;-73
2022/07/25 04:21:51;;;;;;;15.90;14.30;;;19.20;99.90;;;;;;4954197;28;20203;-74
2022/07/25 04:24:16;;;;;;;21.73;15.00;;;19.10;99.90;;;;;;4954683;28;20177;-74
2022/07/25 04:26:42;;;;;;;18.10;16.23;;;19.20;99.90;;;;;;4955119;29;20173;-74
2022/07/25 04:29:07;;;;;;;16.90;13.90;;;19.20;99.90;;;;;;4954275;29;20608;-74
2022/07/25 04:31:33;;;;;;;15.50;13.93;;;19.20;99.90;;;;;;4953852;28;20672;-74
2022/07/25 04:33:58;;;;;;;18.30;13.90;;;19.20;99.90;;;;;;4954846;29;20188;-74
2022/07/25 04:36:25;;;;;;;17.30;13.10;;;19.30;99.90;;;;;;4954715;29;20588;-74
2022/07/25 04:38:51;;;;;;;15.17;13.33;;;19.30;99.90;;;;;;4954707;28;20632;-74
2022/07/25 04:41:16;;;;;;;15.43;13.30;;;19.30;99.90;;;;;;4953075;28;20476;-74
2022/07/25 04:43:42;;;;;;;18.90;13.53;;;19.40;99.90;;;;;;4954491;29;20596;-75
2022/07/25 04:46:07;;;;;;;15.53;14.00;;;19.40;99.90;;;;;;4954771;29;20676;-74
2022/07/25 04:48:33;;;;;;;15.83;12.33;;;19.40;99.90;;;;;;4954644;28;20607;-74
2022/07/25 04:50:58;;;;;;;14.90;13.30;;;19.50;99.90;;;;;;4953622;28;20193;-74
2022/07/25 04:53:24;;;;;;;15.50;14.10;;;19.50;99.90;;;;;;4954626;29;20545;-74
2022/07/25 04:55:49;;;;;;;13.73;12.50;;;19.60;99.90;;;;;;4954372;29;20188;-74
2022/07/25 04:58:15;;;;;;;14.70;13.20;;;19.60;99.90;;;;;;4954526;29;20203;-74
2022/07/25 05:00:41;;;;;;;13.83;12.43;;;19.70;99.90;;;;;;4953950;28;20184;-74
2022/07/25 05:03:06;;;;;;;15.90;13.03;;;19.80;99.90;;;;;;4954572;29;20177;-74
2022/07/25 05:05:32;;;;;;;13.07;11.77;;;19.90;99.90;;;;;;4953816;29;20173;-74
2022/07/25 05:07:58;;;;;;;13.13;12.00;;;20.00;99.90;;;;;;4954411;28;20176;-73
2022/07/25 05:10:25;;;;;;;14.50;12.73;;;20.00;99.90;;;;;;4954077;29;20207;-72
2022/07/25 05:12:51;;;;;;;21.17;14.53;;;20.20;99.90;;;;;;4954006;28;20803;-74
2022/07/25 05:15:17;;;;;;;13.97;12.57;;;20.20;99.90;;;;;;4949348;29;20429;-74
2022/07/25 05:17:42;;;;;;;14.73;11.97;;;20.40;99.90;;;;;;4950284;29;20291;-74
2022/07/25 05:20:08;;;;;;;12.50;11.27;;;20.60;99.90;;;;;;4949894;28;20316;-74
2022/07/25 05:22:34;;;;;;;13.40;12.10;;;21.10;99.90;;;;;;4952376;28;20704;-72
2022/07/25 05:25:01;;;;;;;13.20;11.80;;;21.70;99.90;;;;;;4952757;28;20405;-73
2022/07/25 05:27:27;;;;;;;11.80;10.77;;;22.30;99.90;;;;;;4952441;29;20191;-74
2022/07/25 05:29:52;;;;;;;11.70;10.17;;;22.90;99.90;;;;;;4953031;29;20780;-75
2022/07/25 05:32:18;;;;;;;12.17;10.63;;;23.60;99.90;;;;;;4951092;28;20551;-74
2022/07/25 05:34:44;;;;;;;12.30;10.50;;;24.20;99.90;;;;;;4953849;29;20267;-74
2022/07/25 05:37:10;;;;;;;12.50;11.30;;;24.80;99.90;;;;;;4953821;29;20275;-74
2022/07/25 05:39:38;;;;;;;13.20;11.90;;;25.30;99.90;;;;;;4953058;29;20954;-74
2022/07/25 05:42:04;;;;;;;15.20;11.20;;;25.70;99.90;;;;;;4953523;28;20669;-74
2022/07/25 05:44:29;;;;;;;11.90;10.70;;;26.10;99.90;;;;;;4953708;29;20408;-73
2022/07/25 05:46:55;;;;;;;14.80;11.37;;;26.50;99.90;;;;;;4953585;29;20184;-73
2022/07/25 05:49:21;;;;;;;11.80;10.60;;;26.70;99.90;;;;;;4953084;29;20259;-75
2022/07/25 05:51:46;;;;;;;12.90;11.50;;;27.00;99.90;;;;;;4952705;28;20194;-75
2022/07/25 05:54:12;;;;;;;12.53;11.30;;;27.30;99.90;;;;;;4953519;29;20228;-74
2022/07/25 05:56:37;;;;;;;12.50;11.00;;;27.60;99.90;;;;;;4953324;29;20646;-73
2022/07/25 05:59:03;;;;;;;13.20;11.00;;;27.80;99.90;;;;;;4953351;29;20244;-73
2022/07/25 06:01:28;;;;;;;11.97;10.80;;;28.10;99.90;;;;;;4952435;28;20697;-73
2022/07/25 06:03:54;;;;;;;11.50;10.30;;;28.20;99.90;;;;;;4952748;29;20662;-72
2022/07/25 06:06:19;;;;;;;12.27;11.07;;;28.30;99.90;;;;;;4953183;29;20260;-74
2022/07/25 06:08:45;;;;;;;13.43;11.60;;;28.50;99.90;;;;;;4953508;29;20184;-74
2022/07/25 06:11:10;;;;;;;12.27;11.00;;;28.60;99.90;;;;;;4952206;28;20200;-74
2022/07/25 06:13:36;;;;;;;13.50;11.17;;;28.80;99.90;;;;;;4952462;29;20181;-73
2022/07/25 06:16:01;;;;;;;11.03;10.07;;;29.00;99.90;;;;;;4953073;29;20184;-74
2022/07/25 06:18:27;;;;;;;10.57;9.40;;;29.30;99.90;;;;;;4952659;29;20212;-73
2022/07/25 06:20:53;;;;;;;10.60;9.60;;;29.50;99.90;;;;;;4952147;28;20299;-74
2022/07/25 06:23:18;;;;;;;10.53;9.57;;;29.70;99.90;;;;;;4952646;29;20553;-73
2022/07/25 06:25:45;;;;;;;10.27;9.47;;;30.00;99.90;;;;;;4952634;29;20195;-75
2022/07/25 06:28:13;;;;;;;12.03;10.93;;;30.00;99.90;;;;;;4953242;29;20192;-74
2022/07/25 06:30:42;;;;;;;15.60;10.30;;;30.00;99.90;;;;;;4952095;28;20416;-74
2022/07/25 06:33:08;;;;;;;11.27;10.10;;;30.20;99.90;;;;;;4952520;28;20527;-74
2022/07/25 06:35:33;;;;;;;9.80;8.90;;;30.20;99.90;;;;;;4952764;29;20503;-73
2022/07/25 06:37:59;;;;;;;11.20;10.23;;;30.40;99.90;;;;;;4952273;29;20208;-74
2022/07/25 06:40:24;;;;;;;9.87;8.87;;;30.60;99.90;;;;;;4952472;29;20184;-72
2022/07/25 06:42:50;;;;;;;10.43;9.53;;;30.80;99.90;;;;;;4952315;28;20193;-74
2022/07/25 06:45:15;;;;;;;11.40;10.43;;;30.90;99.90;;;;;;4952431;29;20224;-73
2022/07/25 06:47:42;;;;;;;10.30;9.50;;;31.00;99.90;;;;;;4952190;29;20181;-74
2022/07/25 06:50:10;;;;;;;11.37;10.20;;;30.70;99.90;;;;;;4952360;29;20188;-74
2022/07/25 06:52:36;;;;;;;9.80;8.80;;;30.80;99.90;;;;;;4951713;28;20444;-75
2022/07/25 06:55:03;;;;;;;10.27;9.27;;;30.90;99.90;;;;;;4951958;29;20431;-74
2022/07/25 06:57:29;;;;;;;12.80;9.90;;;31.10;99.90;;;;;;4952565;29;20208;-73
2022/07/25 06:59:55;;;;;;;11.57;9.10;;;31.40;99.90;;;;;;4952097;29;20436;-73
2022/07/25 07:02:20;;;;;;;17.37;9.40;;;31.60;99.90;;;;;;4951496;28;20413;-73
2022/07/25 07:04:46;;;;;;;10.53;9.60;;;31.90;99.90;;;;;;4952267;29;20642;-74
2022/07/25 07:07:12;;;;;;;10.37;9.37;;;32.40;99.90;;;;;;4951958;29;20185;-74
2022/07/25 07:09:37;;;;;;;10.80;9.90;;;32.70;99.90;;;;;;4952230;29;20232;-73
2022/07/25 07:12:03;;;;;;;10.03;9.10;;;33.10;99.90;;;;;;4951450;28;20197;-73
2022/07/25 07:14:28;;;;;;;11.07;9.97;;;33.20;99.90;;;;;;4952319;29;20200;-74
2022/07/25 07:16:54;;;;;;;10.67;9.87;;;33.30;99.90;;;;;;4952113;29;20184;-72
2022/07/25 07:19:19;;;;;;;11.53;10.33;;;33.20;99.90;;;;;;4952040;29;20208;-73
2022/07/25 07:21:45;;;;;;;12.20;10.47;;;33.40;99.90;;;;;;4951083;28;20192;-75
2022/07/25 07:24:10;;;;;;;10.77;9.87;;;33.30;99.90;;;;;;4952216;29;20198;-74
2022/07/25 07:26:36;;;;;;;11.20;10.10;;;33.30;99.90;;;;;;4952075;29;20173;-75
2022/07/25 07:29:02;;;;;;;11.57;10.60;;;33.00;99.90;;;;;;4951515;29;20531;-75
2022/07/25 07:31:28;;;;;;;11.37;10.33;;;33.10;99.90;;;;;;4951113;28;20216;-74
2022/07/25 07:33:54;;;;;;;11.43;9.50;;;33.20;99.90;;;;;;4952196;29;20406;-73
2022/07/25 07:36:20;;;;;;;11.13;10.10;;;33.60;99.90;;;;;;4952052;29;20910;-74
2022/07/25 07:38:47;;;;;;;11.70;9.63;;;33.70;99.90;;;;;;4951465;29;20219;-74
2022/07/25 07:41:12;;;;;;;11.90;10.70;;;33.80;99.90;;;;;;4951417;28;20436;-74
2022/07/25 07:43:38;;;;;;;11.40;10.50;;;33.50;99.90;;;;;;4952713;28;20420;-73
2022/07/25 07:46:04;;;;;;;11.47;10.20;;;33.70;99.90;;;;;;4955557;29;20181;-74
2022/07/25 07:48:30;;;;;;;10.80;9.90;;;34.00;99.90;;;;;;4955605;29;20177;-72
2022/07/25 07:50:57;;;;;;;10.13;9.20;;;34.20;99.90;;;;;;4954194;28;20231;-74
2022/07/25 07:55:42;;;;;;;10.33;9.50;;;34.50;99.90;;;;;;4955560;29;20780;-75
2022/07/25 07:56:08;;;;;;;11.73;10.83;;;34.50;99.90;;;;;;4955356;29;20825;-73
2022/07/25 07:58:33;;;;;;;10.70;9.90;;;34.80;99.90;;;;;;4955113;29;20502;-73
2022/07/25 08:00:59;;;;;;;10.23;9.43;;;34.70;99.90;;;;;;4954757;28;20207;-74
2022/07/25 08:03:24;;;;;;;10.30;9.40;;;34.90;99.90;;;;;;4955204;29;20180;-75
2022/07/25 08:05:50;;;;;;;10.57;9.67;;;35.00;99.90;;;;;;4955011;29;20181;-74
2022/07/25 08:08:16;;;;;;;9.30;8.50;;;35.00;99.90;;;;;;4955572;29;20176;-73
2022/07/25 08:10:44;;;;;;;9.87;8.80;;;35.20;99.90;;;;;;4954555;28;20824;-74
2022/07/25 08:13:18;;;;;;;9.80;8.93;;;35.10;99.90;;;;;;4955242;29;20669;-74
2022/07/25 08:15:45;;;;;;;8.73;7.87;;;35.30;99.90;;;;;;4955199;29;20412;-74
2022/07/25 08:18:11;;;;;;;10.20;9.33;;;35.40;99.90;;;;;;4954700;29;20459;-74
2022/07/25 08:20:37;;;;;;;9.30;8.57;;;35.70;99.70;;;;;;4954125;28;20482;-74
2022/07/25 08:23:03;;;;;;;10.07;9.20;;;36.10;99.50;;;;;;4955055;29;20627;-74
2022/07/25 08:25:29;;;;;;;9.50;8.80;;;35.90;98.50;;;;;;4954845;29;20470;-74
2022/07/25 08:27:55;;;;;;;9.37;8.57;;;36.30;98.50;;;;;;4955167;29;20327;-73
2022/07/25 08:30:21;;;;;;;10.07;8.67;;;36.50;97.00;;;;;;4954334;29;20503;-74
2022/07/25 08:32:50;;;;;;;9.83;9.03;;;36.80;96.70;;;;;;4936812;29;20220;-74
2022/07/25 08:35:17;;;;;;;10.17;9.23;;;36.70;97.20;;;;;;4954734;29;20645;-73
2022/07/25 08:37:43;;;;;;;10.30;9.40;;;37.10;96.70;;;;;;4954847;29;20991;-74
2022/07/25 08:40:09;;;;;;;11.03;10.13;;;37.70;97.70;;;;;;4954627;29;20420;-74
2022/07/25 08:42:36;;;;;;;9.87;8.90;;;38.10;97.00;;;;;;4953776;28;20200;-73
2022/07/25 08:45:04;;;;;;;9.83;9.00;;;37.80;95.20;;;;;;4954254;29;20416;-74
2022/07/25 08:47:31;;;;;;;10.60;9.80;;;38.10;94.70;;;;;;4954553;29;20482;-73
2022/07/25 08:49:57;;;;;;;8.80;8.03;;;38.00;92.80;;;;;;4954616;29;20424;-74
2022/07/25 08:52:23;;;;;;;8.37;7.67;;;38.20;92.50;;;;;;4953523;28;20777;-74
2022/07/25 08:54:49;;;;;;;8.97;7.37;;;38.40;91.90;;;;;;4953714;28;20184;-74
2022/07/25 08:57:16;;;;;;;8.97;8.30;;;38.30;91.10;;;;;;4953563;29;20511;-73
2022/07/25 08:59:42;;;;;;;8.77;8.07;;;38.60;90.10;;;;;;4954502;29;20447;-74
2022/07/25 09:02:11;;;;;;;8.60;7.90;;;38.40;89.20;;;;;;4953598;28;20471;-74
2022/07/25 09:04:37;;;;;;;10.23;9.10;;;38.40;89.90;;;;;;4954391;29;20444;-74
2022/07/25 09:07:03;;;;;;;8.83;8.07;;;38.50;90.50;;;;;;4954761;29;20451;-74
2022/07/25 09:09:35;;;;;;;10.00;9.10;;;38.60;89.30;;;;;;4954407;29;20279;-73
2022/07/25 09:12:02;;;;;;;9.23;8.50;;;39.20;89.40;;;;;;4952878;28;20440;-74
2022/07/25 09:14:28;;;;;;;12.90;9.07;;;39.20;88.80;;;;;;4954131;29;20473;-74
2022/07/25 09:16:55;;;;;;;9.43;8.47;;;39.60;88.40;;;;;;4954231;29;20416;-73
2022/07/25 09:19:23;;;;;;;10.50;9.40;;;39.70;84.60;;;;;;4954195;29;20420;-74
2022/07/25 09:22:06;;;;;;;9.73;8.80;;;39.80;84.60;;;;;;4953287;28;20517;-74
2022/07/25 09:24:32;;;;;;;9.23;8.20;;;40.10;85.30;;;;;;4953750;29;20412;-74
2022/07/25 09:27:00;;;;;;;9.53;8.60;;;40.20;82.70;;;;;;4954065;29;20408;-74
2022/07/25 09:29:28;;;;;;;9.23;8.43;;;39.90;79.50;;;;;;4954441;29;20423;-75
2022/07/25 09:31:55;;;;;;;9.00;8.30;;;39.80;80.40;;;;;;4952671;28;20458;-75
2022/07/25 09:34:35;;;;;;;8.70;8.13;;;40.00;80.90;;;;;;4954029;29;20504;-75
2022/07/25 09:37:06;;;;;;;8.90;7.17;;;40.10;79.00;;;;;;4954054;29;20423;-75
2022/07/25 09:39:36;;;;;;;9.40;8.70;;;40.50;81.10;;;;;;4953691;29;20432;-74
2022/07/25 09:42:02;;;;;;;10.83;9.60;;;40.50;78.40;;;;;;4952842;28;20428;-74
2022/07/25 09:44:30;;;;;;;10.20;9.30;;;40.60;80.00;;;;;;4953442;29;20415;-75
2022/07/25 09:47:00;;;;;;;9.27;8.67;;;41.00;80.40;;;;;;4953141;29;20412;-74
2022/07/25 09:49:35;;;;;;;10.20;9.10;;;40.60;78.50;;;;;;4953582;29;20428;-74
2022/07/25 09:52:01;;;;;;;9.67;8.77;;;40.70;79.00;;;;;;4952793;28;20493;-75
2022/07/25 09:54:29;;;;;;;10.23;9.40;;;41.10;76.30;;;;;;4953445;29;20972;-75
2022/07/25 09:56:54;;;;;;;10.37;9.47;;;41.40;73.80;;;;;;4953238;29;20274;-72
2022/07/25 09:59:20;;;;;;;9.83;9.03;;;41.20;74.60;;;;;;4952877;29;20323;-75
2022/07/25 10:01:54;;;;;;;8.93;8.13;;;40.70;73.50;;;;;;4952738;28;20200;-75
2022/07/25 10:04:26;;;;;;;8.83;8.23;;;40.70;78.10;;;;;;4953299;29;20571;-75
2022/07/25 10:07:11;;;;;;;8.90;8.17;;;40.90;76.90;;;;;;4953072;28;20431;-75
2022/07/25 10:09:53;;;;;;;8.80;8.00;;;41.00;74.50;;;;;;4953220;29;20416;-75
2022/07/25 10:12:20;;;;;;;14.17;10.77;;;41.50;75.90;;;;;;4951916;28;20246;-74
2022/07/25 10:15:06;;;;;;;8.23;7.63;;;41.40;72.10;;;;;;4953055;29;20768;-75
2022/07/25 10:17:33;;;;;;;10.17;9.20;;;41.60;70.80;;;;;;4953304;29;20459;-74
2022/07/25 10:20:00;;;;;;;9.17;8.27;;;41.60;71.80;;;;;;4953070;29;20271;-74
2022/07/25 10:22:40;;;;;;;9.47;8.67;;;41.20;72.60;;;;;;4952494;28;20486;-75
2022/07/25 10:25:15;;;;;;;9.70;9.00;;;41.20;71.90;;;;;;4952766;29;20418;-75
2022/07/25 10:27:47;;;;;;;9.33;8.53;;;41.50;70.60;;;;;;4952681;29;20415;-74
2022/07/25 10:30:22;;;;;;;10.50;8.77;;;41.20;70.90;;;;;;4952823;29;20816;-74
2022/07/25 10:33:11;;;;;;;9.43;8.23;;;41.30;70.50;;;;;;4935146;29;20538;-75
2022/07/25 10:35:38;;;;;;;10.33;9.33;;;41.50;71.10;;;;;;4952734;29;20426;-74
2022/07/25 10:38:04;;;;;;;8.33;7.73;;;41.80;68.80;;;;;;4952716;29;20455;-74
2022/07/25 10:40:36;;;;;;;7.70;7.10;;;41.40;69.20;;;;;;4951753;29;20416;-75
2022/07/25 10:43:10;;;;;;;7.70;7.10;;;41.30;66.90;;;;;;4953559;29;20507;-75
2022/07/25 10:45:53;;;;;;;8.57;7.63;;;41.40;66.00;;;;;;4953807;29;20411;-74
2022/07/25 10:48:26;;;;;;;8.23;7.63;;;41.60;67.30;;;;;;4953297;29;20435;-75
2022/07/25 10:51:10;;;;;;;7.93;7.17;;;41.70;67.60;;;;;;4953036;28;20606;-74
2022/07/25 10:53:45;;;;;;;7.47;6.97;;;41.70;66.60;;;;;;4952517;29;20243;-74
2022/07/25 10:56:22;;;;;;;6.67;6.27;;;42.10;66.40;;;;;;4952601;29;20418;-75
2022/07/25 10:58:47;;;;;;;8.03;6.67;;;42.40;64.80;;;;;;4952772;29;20254;-75
2022/07/25 11:01:14;;;;;;;6.97;6.37;;;42.30;63.20;;;;;;4951636;28;21221;-75
2022/07/25 11:03:43;;;;;;;7.33;6.83;;;42.20;62.90;;;;;;4952159;29;20180;-72
2022/07/25 11:06:10;;;;;;;7.72;6.07;;;42.10;63.60;;;;;;4952336;29;20180;-72
2022/07/25 11:08:36;;;;;;;7.40;6.80;;;42.30;63.20;;;;;;4952292;29;20176;-72
2022/07/25 11:11:02;;;;;;;7.67;6.97;;;42.10;60.90;;;;;;4951376;28;20196;-71
2022/07/25 11:13:27;;;;;;;6.10;5.40;;;41.80;62.20;;;;;;4952388;29;20204;-72
2022/07/25 11:15:57;;;;;;;6.47;5.93;;;41.60;62.40;;;;;;4947128;29;20184;-72
2022/07/25 11:18:35;;;;;;;9.07;6.67;;;40.80;61.10;;;;;;4951611;28;20578;-74
2022/07/25 11:21:02;;;;;;;6.80;5.90;;;40.80;62.10;;;;;;4934010;29;20455;-74
2022/07/25 11:23:27;;;;;;;8.10;7.43;;;40.90;62.40;;;;;;4954951;29;20455;-74
2022/07/25 11:26:06;;;;;;;6.83;6.13;;;41.10;63.90;;;;;;4956091;29;20412;-76
2022/07/25 11:28:45;;;;;;;6.60;5.93;;;40.90;62.10;;;;;;4956201;29;20193;-76
2022/07/25 11:31:13;;;;;;;6.43;5.93;;;40.50;61.20;;;;;;4954848;28;20446;-77
2022/07/25 11:33:40;;;;;;;5.90;5.60;;;40.10;61.70;;;;;;4955867;29;20791;-76
2022/07/25 11:36:06;;;;;;;6.17;5.77;;;39.80;62.90;;;;;;4955979;29;20818;-76
2022/07/25 11:38:32;;;;;;;6.77;6.27;;;39.80;64.30;;;;;;4955716;29;21003;-75
2022/07/25 11:40:58;;;;;;;5.70;5.30;;;39.80;62.10;;;;;;4955058;28;20948;-75
2022/07/25 11:43:24;;;;;;;6.30;5.90;;;39.50;62.30;;;;;;4955529;29;20446;-76
2022/07/25 11:46:03;;;;;;;6.53;6.03;;;39.00;62.50;;;;;;4954752;29;20173;-76
2022/07/25 11:48:31;;;;;;;5.97;5.57;;;38.40;64.20;;;;;;4951496;29;20462;-76
2022/07/25 11:50:57;;;;;;;6.20;5.70;;;38.00;64.60;;;;;;4943877;29;20455;-76
2022/07/25 11:53:24;;;;;;;6.07;5.57;;;37.80;64.90;;;;;;4921406;29;20570;-75
2022/07/25 11:55:50;;;;;;;7.17;5.90;;;38.00;65.30;;;;;;4936615;29;20475;-76
2022/07/25 11:58:16;;;;;;;6.40;5.80;;;38.30;66.40;;;;;;4948018;28;20847;-76
2022/07/25 12:00:48;;;;;;;5.40;5.00;;;38.30;64.70;;;;;;4953439;28;20208;-77
2022/07/25 12:03:16;;;;;;;7.00;6.50;;;37.90;64.40;;;;;;4953526;29;20455;-76
2022/07/25 12:05:42;;;;;;;5.53;5.23;;;37.60;65.10;;;;;;4936891;29;20860;-76
2022/07/25 12:08:10;;;;;;;6.40;6.00;;;37.30;64.70;;;;;;4953314;28;20456;-76
2022/07/25 12:10:37;;;;;;;6.20;5.80;;;37.10;66.80;;;;;;4953639;28;20452;-75
2022/07/25 12:13:05;;;;;;;6.17;5.77;;;37.00;67.00;;;;;;4953694;29;20945;-75
2022/07/25 12:15:34;;;;;;;7.67;7.00;;;36.70;68.20;;;;;;4954032;28;20455;-74
2022/07/25 12:18:01;;;;;;;6.80;6.30;;;36.50;68.10;;;;;;4954263;29;20520;-75
2022/07/25 12:20:29;;;;;;;7.83;7.23;;;36.40;69.50;;;;;;4954299;28;20452;-74
2022/07/25 12:22:58;;;;;;;7.83;6.93;;;36.20;69.10;;;;;;4954951;28;20432;-76
2022/07/25 12:25:24;;;;;;;8.00;5.90;;;36.20;71.00;;;;;;4943259;28;20486;-75
2022/07/25 12:27:50;;;;;;;6.57;6.13;;;36.20;70.50;;;;;;4954051;29;20463;-75
2022/07/25 12:30:17;;;;;;;6.87;6.37;;;36.30;71.40;;;;;;4953264;28;20255;-75
2022/07/25 12:32:42;;;;;;;7.33;6.87;;;36.40;70.70;;;;;;4953086;28;20506;-75
2022/07/25 12:35:10;;;;;;;9.03;8.23;;;36.40;70.90;;;;;;4953276;28;20448;-76
2022/07/25 12:37:36;;;;;;;11.27;7.10;;;36.30;71.60;;;;;;4953292;28;20220;-75
2022/07/25 12:40:03;;;;;;;9.03;7.00;;;36.20;72.60;;;;;;4936451;29;20448;-75
2022/07/25 12:42:28;;;;;;;6.57;6.07;;;36.10;71.40;;;;;;4925760;28;20451;-76
2022/07/25 12:44:55;;;;;;;7.67;7.17;;;36.10;70.80;;;;;;4937711;29;20432;-76
2022/07/25 12:47:24;;;;;;;6.70;6.30;;;35.80;71.80;;;;;;4954499;29;20173;-75
2022/07/25 12:49:50;;;;;;;7.83;7.03;;;35.70;72.30;;;;;;4953921;29;20482;-75
2022/07/25 12:52:15;;;;;;;10.40;7.07;;;35.50;73.20;;;;;;4953700;28;20432;-76
2022/07/25 12:54:41;;;;;;;10.93;7.40;;;35.50;73.30;;;;;;4954470;29;20550;-76
2022/07/25 12:57:08;;;;;;;7.50;7.00;;;35.40;73.10;;;;;;4954797;29;20177;-78
2022/07/25 12:59:34;;;;;;;9.00;8.10;;;35.40;74.60;;;;;;4957592;29;20673;-78
2022/07/25 13:01:59;;;;;;;9.33;6.40;;;35.50;74.60;;;;;;4955308;28;20456;-77
2022/07/25 13:04:25;;;;;;;8.70;7.90;;;35.90;74.40;;;;;;4955396;29;20185;-77
2022/07/25 13:06:53;;;;;;;8.43;7.53;;;36.10;74.50;;;;;;4954498;29;20651;-77
2022/07/25 13:09:18;;;;;;;7.90;7.27;;;36.40;74.80;;;;;;4952418;29;20497;-76
2022/07/25 13:11:44;;;;;;;8.33;7.53;;;36.60;72.50;;;;;;4951197;28;20851;-76
2022/07/25 13:14:10;;;;;;;9.53;7.70;;;36.90;72.50;;;;;;4953984;29;20192;-77
2022/07/25 13:16:36;;;;;;;7.47;6.93;;;36.90;72.50;;;;;;4957095;29;20650;-77
2022/07/25 13:19:03;;;;;;;7.47;6.93;;;36.80;70.90;;;;;;4957159;28;20283;-78
2022/07/25 13:21:29;;;;;;;7.80;7.20;;;36.70;70.60;;;;;;4954378;28;20437;-76
2022/07/25 13:23:58;;;;;;;7.40;7.00;;;36.70;72.20;;;;;;4954536;29;20780;-76
2022/07/25 13:26:24;;;;;;;7.33;6.70;;;36.60;71.90;;;;;;4953823;29;20795;-76
2022/07/25 13:28:52;;;;;;;8.10;7.33;;;36.20;71.60;;;;;;4953964;29;20424;-76
2022/07/25 13:31:19;;;;;;;8.30;7.30;;;36.00;72.60;;;;;;4952746;28;20299;-75
2022/07/25 13:33:45;;;;;;;9.23;7.37;;;36.10;72.50;;;;;;4953739;28;20421;-76
2022/07/25 13:36:11;;;;;;;6.93;6.40;;;36.30;70.50;;;;;;4953143;29;20416;-76
2022/07/25 13:38:40;;;;;;;13.83;5.87;;;36.50;68.90;;;;;;4953756;29;20949;-76
2022/07/25 13:41:08;;;;;;;6.87;6.17;;;36.30;66.60;;;;;;4934914;29;20199;-76
2022/07/25 13:43:34;;;;;;;6.17;5.67;;;36.30;66.90;;;;;;4953985;29;20417;-76
2022/07/25 13:46:00;;;;;;;7.37;6.87;;;36.10;66.10;;;;;;4953611;29;20811;-76
2022/07/25 13:48:27;;;;;;;7.30;5.90;;;35.90;65.90;;;;;;4952754;29;20181;-77
2022/07/25 13:50:53;;;;;;;6.07;5.57;;;35.90;66.70;;;;;;4967735;28;20933;-77
2022/07/25 13:53:18;;;;;;;9.00;6.77;;;35.90;67.10;;;;;;4953283;29;20428;-76
2022/07/25 13:55:44;;;;;;;7.93;7.13;;;35.90;66.70;;;;;;4950705;28;20189;-77
2022/07/25 13:58:10;;;;;;;7.33;6.80;;;35.60;67.10;;;;;;4952273;28;20207;-76
2022/07/25 14:00:35;;;;;;;7.43;6.47;;;35.60;68.20;;;;;;4952300;29;20473;-76
2022/07/25 14:03:01;;;;;;;11.67;10.57;;;35.40;68.60;;;;;;4952672;28;20263;-75
2022/07/25 14:05:26;;;;;;;7.60;6.80;;;35.10;69.70;;;;;;4952403;29;20636;-76
2022/07/25 14:07:52;;;;;;;7.33;6.83;;;35.00;69.90;;;;;;4952698;29;20192;-76